Airfield :
LOGIN :

Register | Disclaimer

   EN    FR    IT 

 










Legend :    VFR   Marginal VFR   IFR   Intensive IFR   Very Intensive IFR
Visi :
Ceiling :
>= 8 km
>= 3000ft
5 to 8 km
1000 to 3000 ft
1500m to 5 km
500 to 1000 ft
800 to 1500m
200 to 500 ft
< 800m
< 200 ft
Symbols :   Thunderstorms  Fog  Heavy snow  Heavy precipitations  Wind > 20 kt
SIGMETs :     Misc.  Thunderstorms  Icing  Turbulence  Mountain Waves  Volcanic Ashes







- Airport Elevation : 157 ft
- IATA code : SXF


EDDB - Berlin Schönefeld

CURRENT METAR :
  • 181150Z 22015KT 9999 OVC044 05/01 Q1013 TEMPO 22015G25KT

EXPIRED METARs :
  • 181120Z 22013G23KT 9999 OVC047 05/01 Q1013 TEMPO 22015G25KT
  • 181050Z 21015KT 9999 OVC047 05/01 Q1014 TEMPO 22015G25KT
  • 181020Z 21015KT CAVOK 05/01 Q1015 TEMPO 22015G25KT
  • 180950Z 21013KT CAVOK 05/01 Q1015 NOSIG
  • 180920Z 21013KT CAVOK 04/01 Q1016 NOSIG

TAF TAF EDDB
Valid from the 18 at 12:00 until the 19 at 12:00 UTC


181100Z 1812/1912 22015KT 9999 BKN030
PROB30
TEMPO 1813/1819 24020G30KT 4500 RA BKN014
TEMPO 1904/1908 25015G25KT
BECMG 1908/1910 25020KT
TEMPO 1908/1912 25020G30KT 4500 SHRA BKN015CB
No reported NOTAMs for that airfield.



MET'MAP, your aeronautical weather chart ! - Copyright ORBIFLY December 2007 - Disclaimer

ORBIFLY MET'MAP TEAM :

Programming & Development : Alexandra Zaïnal
Concept & Development : Baudouin d'Aumeries
Co-Development & Prog : Marc-Olivier Méhu
Technical & hardware support : Manuel Goepfert

Contact : metmap@orbifly.com




SOURCES & CREDITS :

   NOAA